Fostoria, Michigan
Current Conditions -  °F | °C
As of 3:53 PM on Thursday 27 Nov 2014 (Local Time) from KD95 Reporting Station
Light Snow Light Snow  
Wind Chill: 19°   Ceiling: 2000
Heat Index: 28°   Visibility: 10mi
Dew Point: 21°   Wind: 10mph
Humidity: 75%   Direction: 340°NNW
Pressure: 30.17"   Gusts: NA
Location:  43.25°N, 83.37°W
Report Text: KD95 272053Z AUTO 34009KT 10SM -SN OVC020 M02/M06 A3017 RMK AO2 T10201059
Loading
Personal Weather Stations






























Interactive Weather Map New forecast layout! Learn more

10-Day Weather Forecast

Advertisements
Track Severe Weather on mobile